createdAt,value
2018-02-06T00:01:15.034Z,95297.94
2018-02-06T00:03:42.461Z,95300.22
2018-02-06T00:06:09.842Z,95301.91
2018-02-06T00:08:37.310Z,95302.09
2018-02-06T00:11:04.651Z,95291.34
2018-02-06T00:13:32.026Z,95290.00
2018-02-06T00:15:59.393Z,95302.47
2018-02-06T00:18:26.812Z,95280.73
2018-02-06T00:20:54.274Z,95273.55
2018-02-06T00:23:21.651Z,95299.64
2018-02-06T00:25:49.058Z,95295.30
2018-02-06T00:28:16.473Z,95297.74
2018-02-06T00:30:43.809Z,95300.39
2018-02-06T00:33:11.208Z,95298.69
2018-02-06T00:35:38.606Z,95276.02
2018-02-06T00:38:06.020Z,95293.21
2018-02-06T00:40:33.373Z,95277.34
2018-02-06T00:43:00.784Z,95272.23
2018-02-06T00:45:28.162Z,95292.84
2018-02-06T00:47:55.574Z,95283.20
2018-02-06T00:50:22.990Z,95275.07
2018-02-06T00:52:50.398Z,95275.25
2018-02-06T00:55:17.772Z,95273.38
2018-02-06T00:57:45.133Z,95274.89
2018-02-06T01:00:12.510Z,95269.97
2018-02-06T01:02:39.929Z,95264.67
2018-02-06T01:05:07.307Z,95256.55
2018-02-06T01:07:34.703Z,95255.00
2018-02-06T01:10:02.053Z,95256.16
2018-02-06T01:12:29.461Z,95232.91
2018-02-06T01:14:56.864Z,95252.97
2018-02-06T01:17:24.466Z,95225.17
2018-02-06T01:19:51.958Z,95241.98
2018-02-06T01:22:19.357Z,95240.48
2018-02-06T01:24:46.751Z,95237.83
2018-02-06T01:27:14.118Z,95236.49
2018-02-06T01:29:41.561Z,95233.86
2018-02-06T01:32:08.984Z,95199.67
2018-02-06T01:34:36.353Z,95220.27
2018-02-06T01:37:03.792Z,95218.38
2018-02-06T01:39:31.158Z,95207.05
2018-02-06T01:41:58.613Z,95188.16
2018-02-06T01:44:25.975Z,95210.63
2018-02-06T01:46:53.383Z,95204.58
2018-02-06T01:49:20.806Z,95199.30
2018-02-06T01:51:48.177Z,95199.66
2018-02-06T01:54:15.543Z,95171.92
2018-02-06T01:56:42.892Z,95188.92
2018-02-06T01:59:10.297Z,95192.11
2018-02-06T02:01:37.655Z,95192.31
2018-02-06T02:04:05.004Z,95183.63
2018-02-06T02:06:32.382Z,95185.69
2018-02-06T02:08:59.768Z,95174.91
2018-02-06T02:11:27.189Z,95189.45
2018-02-06T02:13:54.534Z,95185.09
2018-02-06T02:16:21.918Z,95198.70
2018-02-06T02:18:49.351Z,95193.77
2018-02-06T02:21:16.782Z,95183.22
2018-02-06T02:23:44.179Z,95188.32
2018-02-06T02:26:11.537Z,95189.64
2018-02-06T02:28:38.980Z,95182.84
2018-02-06T02:31:06.333Z,95188.16
2018-02-06T02:33:33.726Z,95173.04
2018-02-06T02:36:01.083Z,95191.17
2018-02-06T02:38:28.454Z,95197.02
2018-02-06T02:40:55.851Z,95189.86
2018-02-06T04:38:49.658Z,95256.56
2018-02-06T04:41:17.100Z,95259.93
2018-02-06T04:43:44.488Z,95252.02
2018-02-06T04:46:11.894Z,95256.55
2018-02-06T04:48:39.342Z,95257.66
2018-02-06T04:51:06.772Z,95257.86
2018-02-06T04:53:34.211Z,95251.82
2018-02-06T04:56:01.597Z,95254.64
2018-02-06T04:58:29.064Z,95244.45
2018-02-06T05:00:56.560Z,95263.91
2018-02-06T05:03:24.015Z,95239.92
2018-02-06T05:05:51.422Z,95261.42
2018-02-06T05:08:18.813Z,95265.22
2018-02-06T05:10:46.267Z,95254.23
2018-02-06T05:13:13.709Z,95259.53
2018-02-06T05:15:41.113Z,95268.98
2018-02-06T05:18:08.505Z,95256.69
2018-02-06T05:20:35.945Z,95261.05
2018-02-06T05:23:03.447Z,95265.95
2018-02-06T05:25:30.865Z,95265.02
2018-02-06T05:27:58.394Z,95259.34
2018-02-06T05:30:25.873Z,95269.34
2018-02-06T05:32:53.313Z,95245.73
2018-02-06T05:35:20.705Z,95271.05
2018-02-06T05:37:48.137Z,95276.91
2018-02-06T05:40:15.514Z,95274.09
2018-02-06T05:42:42.931Z,95266.73
2018-02-06T05:45:10.383Z,95283.13
2018-02-06T05:47:37.814Z,95288.84
2018-02-06T05:50:05.253Z,95284.48
2018-02-06T05:52:32.655Z,95295.98
2018-02-06T05:55:00.072Z,95284.48
2018-02-06T05:57:27.517Z,95285.04
2018-02-06T05:59:54.910Z,95294.11
2018-02-06T06:02:22.358Z,95284.42
2018-02-06T06:04:49.783Z,95285.58
2018-02-06T06:07:17.146Z,95289.34
2018-02-06T06:09:44.567Z,95294.02
2018-02-06T06:12:12.008Z,95303.12
2018-02-06T06:14:39.427Z,95292.94
2018-02-06T06:17:06.888Z,95308.17
2018-02-06T06:19:34.301Z,95312.11
2018-02-06T06:22:01.702Z,95304.72
2018-02-06T06:24:29.158Z,95301.72
2018-02-06T06:26:56.539Z,95307.92
2018-02-06T06:29:23.970Z,95306.77
2018-02-06T06:31:51.402Z,95315.04
2018-02-06T06:34:18.789Z,95318.84
2018-02-06T06:36:46.190Z,95321.42
2018-02-06T06:39:14.217Z,95317.09
2018-02-06T06:41:41.685Z,95312.41
2018-02-06T06:44:09.075Z,95317.82
2018-02-06T06:46:36.629Z,95324.73
2018-02-06T06:49:04.048Z,95325.10
2018-02-06T06:51:31.482Z,95312.89
2018-02-06T06:53:58.982Z,95312.00
2018-02-06T06:56:26.384Z,95318.19
2018-02-06T06:58:53.772Z,95281.66
2018-02-06T07:01:21.676Z,95306.80
2018-02-06T07:03:49.095Z,95302.28
2018-02-06T07:06:16.526Z,95318.44
2018-02-06T07:08:44.035Z,95318.28
2018-02-06T07:11:11.467Z,95314.64
2018-02-06T07:13:38.912Z,95323.86
2018-02-06T07:16:06.385Z,95294.18
2018-02-06T07:18:34.010Z,95313.03
2018-02-06T07:21:01.477Z,95303.78
2018-02-06T07:23:28.951Z,95326.00
2018-02-06T07:25:56.377Z,95307.53
2018-02-06T07:28:23.823Z,95327.84
2018-02-06T07:30:51.249Z,95329.56
2018-02-06T07:33:18.903Z,95322.61
2018-02-06T07:35:46.324Z,95330.88
2018-02-06T07:38:13.762Z,95327.87
2018-02-06T07:40:41.254Z,95335.59
2018-02-06T07:43:08.690Z,95341.98
2018-02-06T07:45:36.113Z,95347.89
2018-02-06T07:48:03.619Z,95330.16
2018-02-06T07:50:31.059Z,95310.66
2018-02-06T07:52:58.536Z,95325.35
2018-02-06T07:55:25.963Z,95329.30
2018-02-06T07:57:53.412Z,95309.06
2018-02-06T08:00:20.835Z,95308.11
2018-02-06T08:02:48.262Z,95327.52
2018-02-06T08:05:16.526Z,95322.00
2018-02-06T08:07:44.015Z,95320.30
2018-02-06T08:10:11.396Z,95321.20
2018-02-06T08:12:38.830Z,95308.20
2018-02-06T08:15:06.353Z,95328.77
2018-02-06T08:17:33.751Z,95330.58
2018-02-06T08:20:01.202Z,95317.45
2018-02-06T08:22:28.939Z,95310.62
2018-02-06T08:24:57.892Z,95329.10
2018-02-06T08:27:25.298Z,95322.52
2018-02-06T08:29:53.214Z,95316.48
2018-02-06T08:32:20.832Z,95329.72
2018-02-06T08:34:48.269Z,95328.97
2018-02-06T08:37:15.683Z,95325.41
2018-02-06T08:39:43.191Z,95327.04
2018-02-06T08:42:10.590Z,95327.98
2018-02-06T08:44:38.014Z,95317.72
2018-02-06T08:47:05.646Z,95334.98
2018-02-06T08:49:33.062Z,95330.78
2018-02-06T08:52:00.704Z,95323.09
2018-02-06T08:54:28.287Z,95315.88
2018-02-06T08:56:55.801Z,95318.20
2018-02-06T08:59:23.391Z,95333.55
2018-02-06T09:01:50.858Z,95325.38
2018-02-06T09:04:18.543Z,95327.93
2018-02-06T09:06:46.081Z,95319.48
2018-02-06T09:09:13.845Z,95339.08
2018-02-06T09:11:41.298Z,95313.08
2018-02-06T09:14:08.765Z,95347.75
2018-02-06T09:16:36.201Z,95315.33
2018-02-06T09:19:03.765Z,95333.34
2018-02-06T09:21:31.176Z,95319.95
2018-02-06T09:23:58.616Z,95326.64
2018-02-06T09:26:26.129Z,95290.42
2018-02-06T09:28:53.608Z,95312.08
2018-02-06T09:31:21.086Z,95312.64
2018-02-06T09:33:48.497Z,95322.61
2018-02-06T09:36:15.914Z,95324.05
2018-02-06T09:38:43.374Z,95320.75
2018-02-06T09:41:10.809Z,95306.55
2018-02-06T09:43:38.221Z,95308.27
2018-02-06T09:46:05.810Z,95321.89
2018-02-06T09:48:33.331Z,95303.08
2018-02-06T09:51:00.865Z,95319.93
2018-02-06T09:53:28.455Z,95309.94
2018-02-06T09:55:56.087Z,95315.25
2018-02-06T09:58:23.622Z,95312.59
2018-02-06T10:00:51.054Z,95307.53
2018-02-06T10:03:18.543Z,95315.28
2018-02-06T10:05:46.084Z,95279.04
2018-02-06T10:08:13.554Z,95281.64
2018-02-06T10:10:41.068Z,95303.27
2018-02-06T10:13:18.749Z,95221.55
2018-02-06T10:15:46.166Z,95284.24
2018-02-06T10:18:14.346Z,95179.97
2018-02-06T10:20:41.758Z,95286.56
2018-02-06T10:23:09.360Z,95276.80
2018-02-06T10:25:36.870Z,95279.72
2018-02-06T10:28:04.303Z,95253.93
2018-02-06T10:30:31.682Z,95261.89
2018-02-06T10:32:59.084Z,95235.42
2018-02-06T10:35:26.469Z,95251.62
2018-02-06T10:37:53.868Z,95253.52
2018-02-06T10:40:21.308Z,95246.74
2018-02-06T10:42:48.717Z,95247.27
2018-02-06T10:45:16.120Z,95208.64
2018-02-06T10:47:43.609Z,95248.84
2018-02-06T10:50:11.597Z,95245.41
2018-02-06T10:52:39.544Z,95212.62
2018-02-06T10:55:07.094Z,95239.69
2018-02-06T10:57:34.622Z,95202.82
2018-02-06T11:00:03.140Z,95237.95
2018-02-06T11:02:30.632Z,95234.81
2018-02-06T11:04:58.619Z,95241.97
2018-02-06T11:07:26.174Z,95232.16
2018-02-06T11:09:53.727Z,95228.47
2018-02-06T11:12:21.275Z,95228.99
2018-02-06T11:14:49.236Z,95199.33
2018-02-06T11:17:16.737Z,95203.39
2018-02-06T11:19:44.452Z,95206.45
2018-02-06T11:22:11.992Z,95221.16
2018-02-06T11:24:39.506Z,95213.96
2018-02-06T11:27:06.967Z,95221.51
2018-02-06T11:32:32.003Z,95181.48
2018-02-06T11:34:59.550Z,95218.27
2018-02-06T11:37:28.234Z,95221.11
2018-02-06T11:39:55.900Z,95216.02
2018-02-06T11:42:23.665Z,95207.78
2018-02-06T11:44:51.329Z,95198.55
2018-02-06T11:47:19.348Z,95198.68
2018-02-06T11:49:46.858Z,95194.55
2018-02-06T11:52:14.702Z,95173.88
2018-02-06T11:54:44.751Z,95174.73
2018-02-06T11:57:13.355Z,95199.66
2018-02-06T11:59:40.934Z,95161.91
2018-02-06T12:02:08.486Z,95163.75
2018-02-06T12:04:36.043Z,95187.24
2018-02-06T12:07:03.518Z,95168.37
2018-02-06T12:09:31.081Z,95198.25
2018-02-06T12:11:58.542Z,95197.22
2018-02-06T12:14:25.935Z,95170.63
2018-02-06T12:16:53.412Z,95188.48
2018-02-06T12:19:20.863Z,95185.44
2018-02-06T12:21:48.251Z,95191.42
2018-02-06T12:24:15.640Z,95188.55
2018-02-06T12:26:43.068Z,95186.95
2018-02-06T12:29:10.622Z,95185.85
2018-02-06T12:31:38.005Z,95149.16
2018-02-06T12:34:05.553Z,95181.86
2018-02-06T12:36:32.955Z,95177.84
2018-02-06T12:39:00.334Z,95172.21
2018-02-06T12:41:27.767Z,95157.83
2018-02-06T12:43:55.164Z,95156.13
2018-02-06T12:46:22.615Z,95158.08
2018-02-06T12:48:50.001Z,95164.84
2018-02-06T12:51:17.433Z,95158.78
2018-02-06T12:53:44.870Z,95142.28
2018-02-06T12:56:12.270Z,95158.34
2018-02-06T12:58:39.715Z,95162.64
2018-02-06T13:01:07.151Z,95125.09
2018-02-06T13:03:34.540Z,95146.09
2018-02-06T13:06:02.074Z,95130.66
2018-02-06T13:08:29.489Z,95125.36
2018-02-06T13:10:57.077Z,95142.61
2018-02-06T13:13:24.462Z,95153.59
2018-02-06T13:15:51.884Z,95137.70
2018-02-06T13:18:19.274Z,95117.64
2018-02-06T13:20:46.727Z,95150.08
2018-02-06T13:23:14.153Z,95125.39
2018-02-06T13:25:41.607Z,95143.51
2018-02-06T13:28:09.111Z,95119.62
2018-02-06T13:30:36.542Z,95135.23
2018-02-06T13:33:04.101Z,95129.38
2018-02-06T13:35:31.547Z,95115.92
2018-02-06T13:37:58.948Z,95129.76
2018-02-06T13:40:26.354Z,95130.05
2018-02-06T13:42:53.780Z,95130.28
2018-02-06T13:45:21.207Z,95128.59
2018-02-06T13:47:48.679Z,95131.37
2018-02-06T13:50:16.117Z,95131.34
2018-02-06T13:52:43.658Z,95129.41
2018-02-06T13:55:11.108Z,95135.50
2018-02-06T13:57:38.543Z,95103.50
2018-02-06T14:00:06.698Z,95105.09
2018-02-06T14:02:34.138Z,95111.22
2018-02-06T14:05:01.555Z,95116.66
2018-02-06T14:07:28.998Z,95128.77
2018-02-06T14:09:56.425Z,95109.04
2018-02-06T14:12:23.910Z,95098.31
2018-02-06T14:14:51.335Z,95113.47
2018-02-06T14:17:18.914Z,95117.34
2018-02-06T14:19:46.346Z,95126.42
2018-02-06T14:22:13.812Z,95118.26
2018-02-06T14:24:41.246Z,95092.63
2018-02-06T14:27:08.675Z,95105.28
2018-02-06T14:29:36.191Z,95112.52
2018-02-06T14:32:03.754Z,95105.72
2018-02-06T14:34:31.282Z,95099.95
2018-02-06T14:36:58.667Z,95104.47
2018-02-06T14:39:26.047Z,95083.28
2018-02-06T14:41:53.441Z,95104.72
2018-02-06T14:44:20.996Z,95107.59
2018-02-06T14:46:48.484Z,95110.66
2018-02-06T14:49:15.889Z,95101.98
2018-02-06T14:51:43.348Z,95109.06
2018-02-06T14:54:10.733Z,95119.38
2018-02-06T14:56:38.167Z,95110.78
2018-02-06T14:59:05.579Z,95125.05
2018-02-06T15:01:33.028Z,95107.56
2018-02-06T15:04:00.649Z,95132.25
2018-02-06T15:06:28.111Z,95108.79
2018-02-06T15:08:55.585Z,95100.24
2018-02-06T15:11:23.027Z,95107.31
2018-02-06T15:13:50.587Z,95128.45
2018-02-06T15:16:18.001Z,95125.16
2018-02-06T15:18:45.424Z,95122.82
2018-02-06T15:21:12.834Z,95120.13
2018-02-06T15:23:40.253Z,95123.29
2018-02-06T15:26:07.681Z,95139.95
2018-02-06T15:28:35.211Z,95139.02
2018-02-06T15:31:02.636Z,95154.73
2018-02-06T15:33:30.035Z,95141.91
2018-02-06T15:35:57.433Z,95119.92
2018-02-06T15:38:24.850Z,95134.00
2018-02-06T15:40:52.252Z,95154.46
2018-02-06T15:43:19.680Z,95136.88
2018-02-06T15:45:47.257Z,95132.72
2018-02-06T15:48:14.660Z,95163.65
2018-02-06T15:50:42.138Z,95145.95
2018-02-06T15:53:09.527Z,95160.17
2018-02-06T15:55:36.968Z,95164.38
2018-02-06T15:58:04.378Z,95181.33
2018-02-06T16:00:31.755Z,95177.99
2018-02-06T16:02:59.130Z,95181.69
2018-02-06T16:05:26.505Z,95180.66
2018-02-06T16:07:53.925Z,95177.24
2018-02-06T16:10:21.334Z,95182.11
2018-02-06T16:12:48.722Z,95181.70
2018-02-06T16:15:16.106Z,95171.50
2018-02-06T16:17:43.578Z,95175.54
2018-02-06T16:20:10.991Z,95178.35
2018-02-06T16:22:38.397Z,95200.22
2018-02-06T16:25:05.819Z,95189.85
2018-02-06T16:27:33.461Z,95190.97
2018-02-06T16:30:00.882Z,95154.01
2018-02-06T16:32:28.251Z,95179.25
2018-02-06T16:34:55.688Z,95197.86
2018-02-06T16:37:23.124Z,95191.94
2018-02-06T16:39:50.530Z,95189.27
2018-02-06T16:42:17.954Z,95193.01
2018-02-06T16:44:45.375Z,95196.93
2018-02-06T16:47:12.782Z,95203.39
2018-02-06T16:49:40.193Z,95210.14
2018-02-06T16:52:07.566Z,95206.76
2018-02-06T16:54:34.962Z,95220.63
2018-02-06T16:57:02.400Z,95216.27
2018-02-06T16:59:29.814Z,95221.39
2018-02-06T17:01:57.229Z,95220.39
2018-02-06T17:04:24.601Z,95226.46
2018-02-06T17:06:52.032Z,95196.08
2018-02-06T17:09:19.407Z,95234.63
2018-02-06T17:11:46.772Z,95227.57
2018-02-06T17:14:14.142Z,95222.74
2018-02-06T17:16:41.550Z,95227.02
2018-02-06T17:19:08.949Z,95231.14
2018-02-06T17:21:36.365Z,95225.20
2018-02-06T17:24:03.818Z,95229.14
2018-02-06T17:26:31.238Z,95224.48
2018-02-06T17:28:58.657Z,95234.09
2018-02-06T17:31:26.041Z,95241.52
2018-02-06T17:33:53.586Z,95231.17
2018-02-06T17:36:20.970Z,95246.99
2018-02-06T17:38:48.400Z,95248.37
2018-02-06T17:41:15.853Z,95262.13
2018-02-06T17:43:43.252Z,95226.94
2018-02-06T17:46:10.680Z,95251.96
2018-02-06T17:48:38.124Z,95242.97
2018-02-06T17:51:05.534Z,95250.91
2018-02-06T17:53:32.974Z,95242.91
2018-02-06T17:56:00.365Z,95239.70
2018-02-06T17:58:48.201Z,95087.09
2018-02-06T18:01:15.719Z,95259.83
2018-02-06T18:03:43.161Z,95264.73
2018-02-06T18:06:10.570Z,95269.20
2018-02-06T18:08:37.979Z,95248.56
2018-02-06T18:11:05.390Z,95258.37
2018-02-06T18:13:32.763Z,95232.02
2018-02-06T18:16:00.174Z,95263.15
2018-02-06T18:18:27.597Z,95248.01
2018-02-06T18:20:55.078Z,95261.60
2018-02-06T18:23:22.527Z,95253.17
2018-02-06T18:25:49.920Z,95268.46
2018-02-06T18:28:17.368Z,95260.34
2018-02-06T18:30:44.786Z,95260.34
2018-02-06T18:33:12.236Z,95261.89
2018-02-06T18:35:39.630Z,95263.41
2018-02-06T18:38:07.071Z,95264.53
2018-02-06T18:40:34.499Z,95264.55
2018-02-06T18:43:01.886Z,95260.84
2018-02-06T18:45:29.286Z,95260.23
2018-02-06T18:47:56.720Z,95272.18
2018-02-06T18:50:24.184Z,95269.36
2018-02-06T18:52:51.580Z,95269.00
2018-02-06T18:55:19.006Z,95276.78
2018-02-06T18:57:46.430Z,95277.35
2018-02-06T19:00:13.861Z,95279.85
2018-02-06T19:02:41.336Z,95282.30
2018-02-06T19:05:08.767Z,95281.03
2018-02-06T19:07:36.184Z,95297.89
2018-02-06T19:10:03.589Z,95292.21
2018-02-06T19:12:31.070Z,95298.16
2018-02-06T19:14:58.472Z,95305.91
2018-02-06T19:17:25.921Z,95312.92
2018-02-06T19:19:53.359Z,95311.21
2018-02-06T19:22:20.814Z,95305.95
2018-02-06T19:24:48.259Z,95317.86
2018-02-06T19:27:15.711Z,95310.75
2018-02-06T19:29:43.105Z,95323.40
2018-02-06T19:32:10.548Z,95321.31
2018-02-06T19:34:38.032Z,95312.33
2018-02-06T19:37:05.424Z,95320.67
2018-02-06T19:39:32.934Z,95326.52
2018-02-06T19:42:00.339Z,95335.98
2018-02-06T19:44:27.741Z,95337.70
2018-02-06T19:46:55.228Z,95346.23
2018-02-06T19:49:22.679Z,95350.98
2018-02-06T19:51:50.087Z,95352.14
2018-02-06T19:54:17.483Z,95351.99
2018-02-06T19:56:44.918Z,95352.75
2018-02-06T19:59:12.291Z,95363.16
2018-02-06T20:01:39.721Z,95339.20
2018-02-06T20:04:07.136Z,95366.75
2018-02-06T20:06:34.573Z,95367.92
2018-02-06T20:09:01.984Z,95375.89
2018-02-06T20:11:29.409Z,95358.72
2018-02-06T20:13:56.834Z,95379.33
2018-02-06T20:16:24.322Z,95372.69
2018-02-06T20:18:51.709Z,95376.47
2018-02-06T20:21:19.132Z,95377.06
2018-02-06T20:23:46.549Z,95381.61
2018-02-06T20:26:13.951Z,95371.22
2018-02-06T20:28:41.415Z,95372.92
2018-02-06T20:31:08.800Z,95380.89
2018-02-06T20:33:36.214Z,95374.47
2018-02-06T20:36:03.626Z,95378.84
2018-02-06T20:38:31.035Z,95378.84
2018-02-06T20:40:58.447Z,95379.78
2018-02-06T20:43:25.899Z,95382.05
2018-02-06T20:45:53.317Z,95375.04
2018-02-06T20:48:20.797Z,95371.50
2018-02-06T20:50:48.204Z,95374.48
2018-02-06T20:53:15.672Z,95372.05
2018-02-06T20:55:43.145Z,95362.38
2018-02-06T20:58:10.555Z,95358.83
2018-02-06T21:00:37.944Z,95366.97
2018-02-06T21:03:05.421Z,95375.70
2018-02-06T21:05:32.812Z,95369.61
2018-02-06T21:08:00.227Z,95379.86
2018-02-06T21:10:27.705Z,95373.44
2018-02-06T21:12:55.111Z,95371.71
2018-02-06T21:15:22.544Z,95373.81
2018-02-06T21:17:50.004Z,95380.08
2018-02-06T21:20:17.462Z,95372.86
2018-02-06T21:22:44.891Z,95369.28
2018-02-06T21:25:12.276Z,95373.26
2018-02-06T21:27:39.708Z,95375.14
2018-02-06T21:30:09.054Z,95361.92
2018-02-06T21:32:36.554Z,95371.59
2018-02-06T21:35:03.900Z,95384.09
2018-02-06T21:37:31.290Z,95371.39
2018-02-06T21:39:58.648Z,95376.91
2018-02-06T21:42:26.053Z,95373.09
2018-02-06T21:44:53.501Z,95367.06
2018-02-06T21:47:20.854Z,95374.81
2018-02-06T21:49:48.327Z,95379.19
2018-02-06T21:52:15.706Z,95376.47
2018-02-06T21:54:43.157Z,95351.05
2018-02-06T21:57:10.509Z,95373.33
2018-02-06T21:59:37.902Z,95375.42
2018-02-06T22:02:05.385Z,95376.59
2018-02-06T22:04:32.790Z,95383.25
2018-02-06T22:07:00.146Z,95368.33
2018-02-06T22:09:27.493Z,95369.06
2018-02-06T22:11:54.876Z,95380.45
2018-02-06T22:14:22.258Z,95372.73
2018-02-06T22:16:49.620Z,95370.09
2018-02-06T22:19:17.025Z,95363.86
2018-02-06T22:21:44.363Z,95345.38
2018-02-06T22:24:11.772Z,95354.86
2018-02-06T22:26:39.126Z,95373.17
2018-02-06T22:29:06.574Z,95365.82
2018-02-06T22:31:33.917Z,95364.91
2018-02-06T22:34:01.252Z,95359.23
2018-02-06T22:36:28.622Z,95353.16
2018-02-06T22:38:55.970Z,95352.95
2018-02-06T22:41:23.448Z,95350.30
2018-02-06T22:43:50.786Z,95345.22
2018-02-06T22:46:18.234Z,95355.43
2018-02-06T22:48:45.641Z,95353.20
2018-02-06T22:51:12.997Z,95356.80
2018-02-06T22:53:40.439Z,95339.42
2018-02-06T22:56:07.794Z,95360.03
2018-02-06T22:58:35.158Z,95354.73
2018-02-06T23:01:02.516Z,95331.67
2018-02-06T23:03:29.929Z,95345.84
2018-02-06T23:05:57.262Z,95352.28
2018-02-06T23:08:24.614Z,95336.39
2018-02-06T23:10:51.961Z,95343.60
2018-02-06T23:13:19.366Z,95343.60
2018-02-06T23:15:46.702Z,95340.02
2018-02-06T23:18:14.111Z,95345.31
2018-02-06T23:20:41.459Z,95336.44
2018-02-06T23:23:08.834Z,95342.69
2018-02-06T23:25:36.188Z,95338.69
2018-02-06T23:28:03.591Z,95320.36
2018-02-06T23:30:30.945Z,95331.35
2018-02-06T23:32:58.343Z,95321.52
2018-02-06T23:35:25.718Z,95328.50
2018-02-06T23:37:53.139Z,95328.11
2018-02-06T23:40:20.541Z,95326.78
2018-02-06T23:42:47.881Z,95321.72
2018-02-06T23:45:15.281Z,95324.16
2018-02-06T23:47:42.678Z,95321.72
2018-02-06T23:50:10.067Z,95326.08
2018-02-06T23:52:37.425Z,95330.02
2018-02-06T23:55:04.778Z,95322.09
2018-02-06T23:57:32.133Z,95328.90
2018-02-06T23:59:59.513Z,95328.34
